Huntington, Connecticut
Current Conditions -  °F | °C
As of 2:52 AM on Saturday 25 Oct 2014 (Local Time) from KBDR Reporting Station
Clear Clear  
Wind Chill: 51°   Ceiling: Unl
Heat Index: 51°   Visibility: 10mi
Dew Point: 42°   Wind: 8mph
Humidity: 71%   Direction: 310°NW
Pressure: 29.82"   Gusts: NA
Location:  41.3059°N, 73.1393°W
Report Text: KBDR 250652Z AUTO 31007KT 10SM CLR 11/06 A2982 RMK AO2 SLP098 T01060056
Loading
Personal Weather Stations






























Interactive Weather Map
Tropical Storm Tracking
New forecast layout! Learn more

10-Day Weather Forecast

Advertisements
Track Severe Weather on mobile